sensor_id;sensor_type;location;lat;lon;timestamp;temperature;humidity
27114;DHT22;14648;49.730;8.614;2023-07-22T00:00:50;19.50;51.50
27114;DHT22;14648;49.730;8.614;2023-07-22T00:03:15;19.50;51.50
27114;DHT22;14648;49.730;8.614;2023-07-22T00:05:41;19.50;51.60
27114;DHT22;14648;49.730;8.614;2023-07-22T00:08:07;19.50;51.60
27114;DHT22;14648;49.730;8.614;2023-07-22T00:10:33;19.50;51.80
27114;DHT22;14648;49.730;8.614;2023-07-22T00:12:58;19.50;51.70
27114;DHT22;14648;49.730;8.614;2023-07-22T00:15:24;19.40;51.50
27114;DHT22;14648;49.730;8.614;2023-07-22T00:17:50;19.40;51.70
27114;DHT22;14648;49.730;8.614;2023-07-22T00:20:16;19.40;51.80
27114;DHT22;14648;49.730;8.614;2023-07-22T00:22:42;19.40;51.90
27114;DHT22;14648;49.730;8.614;2023-07-22T00:25:12;19.40;51.90
27114;DHT22;14648;49.730;8.614;2023-07-22T00:27:39;19.40;52.00
27114;DHT22;14648;49.730;8.614;2023-07-22T00:30:06;19.40;52.10
27114;DHT22;14648;49.730;8.614;2023-07-22T00:32:32;19.40;52.30
27114;DHT22;14648;49.730;8.614;2023-07-22T00:34:58;19.40;52.30
27114;DHT22;14648;49.730;8.614;2023-07-22T00:37:24;19.40;52.40
27114;DHT22;14648;49.730;8.614;2023-07-22T00:39:50;19.40;52.40
27114;DHT22;14648;49.730;8.614;2023-07-22T00:42:16;19.40;52.60
27114;DHT22;14648;49.730;8.614;2023-07-22T00:44:42;19.40;52.50
27114;DHT22;14648;49.730;8.614;2023-07-22T00:47:08;19.40;52.60
27114;DHT22;14648;49.730;8.614;2023-07-22T00:49:34;19.40;52.80
27114;DHT22;14648;49.730;8.614;2023-07-22T00:52:02;19.40;52.90
27114;DHT22;14648;49.730;8.614;2023-07-22T00:54:29;19.40;52.90
27114;DHT22;14648;49.730;8.614;2023-07-22T00:56:56;19.40;52.80
27114;DHT22;14648;49.730;8.614;2023-07-22T00:59:23;19.40;52.80
27114;DHT22;14648;49.730;8.614;2023-07-22T01:01:50;19.30;52.60
27114;DHT22;14648;49.730;8.614;2023-07-22T01:04:19;19.30;52.60
27114;DHT22;14648;49.730;8.614;2023-07-22T01:06:45;19.30;52.40
27114;DHT22;14648;49.730;8.614;2023-07-22T01:09:12;19.20;52.40
27114;DHT22;14648;49.730;8.614;2023-07-22T01:11:38;19.20;52.40
27114;DHT22;14648;49.730;8.614;2023-07-22T01:14:04;19.20;53.00
27114;DHT22;14648;49.730;8.614;2023-07-22T01:16:30;19.20;52.20
27114;DHT22;14648;49.730;8.614;2023-07-22T01:18:56;19.10;52.00
27114;DHT22;14648;49.730;8.614;2023-07-22T01:21:23;19.10;52.00
27114;DHT22;14648;49.730;8.614;2023-07-22T01:23:49;19.10;52.00
27114;DHT22;14648;49.730;8.614;2023-07-22T01:26:15;19.10;52.00
27114;DHT22;14648;49.730;8.614;2023-07-22T01:28:41;19.00;51.80
27114;DHT22;14648;49.730;8.614;2023-07-22T01:31:07;19.00;51.80
27114;DHT22;14648;49.730;8.614;2023-07-22T01:33:33;19.00;51.70
27114;DHT22;14648;49.730;8.614;2023-07-22T01:36:00;19.00;51.60
27114;DHT22;14648;49.730;8.614;2023-07-22T01:38:26;19.00;51.50
27114;DHT22;14648;49.730;8.614;2023-07-22T01:40:51;19.00;51.50
27114;DHT22;14648;49.730;8.614;2023-07-22T01:43:17;19.00;51.50
27114;DHT22;14648;49.730;8.614;2023-07-22T01:45:42;19.00;51.40
27114;DHT22;14648;49.730;8.614;2023-07-22T01:48:08;19.00;51.50
27114;DHT22;14648;49.730;8.614;2023-07-22T01:50:34;19.00;51.50
27114;DHT22;14648;49.730;8.614;2023-07-22T01:53:00;19.00;51.50
27114;DHT22;14648;49.730;8.614;2023-07-22T01:55:25;19.10;51.50
27114;DHT22;14648;49.730;8.614;2023-07-22T01:57:51;19.00;51.40
27114;DHT22;14648;49.730;8.614;2023-07-22T02:00:17;19.00;51.30
27114;DHT22;14648;49.730;8.614;2023-07-22T02:02:43;19.00;51.30
27114;DHT22;14648;49.730;8.614;2023-07-22T02:05:09;19.00;51.20
27114;DHT22;14648;49.730;8.614;2023-07-22T02:07:38;19.00;51.20
27114;DHT22;14648;49.730;8.614;2023-07-22T02:10:04;19.00;51.10
27114;DHT22;14648;49.730;8.614;2023-07-22T02:12:31;19.10;51.20
27114;DHT22;14648;49.730;8.614;2023-07-22T02:14:56;19.00;51.10
27114;DHT22;14648;49.730;8.614;2023-07-22T02:17:22;19.10;51.20
27114;DHT22;14648;49.730;8.614;2023-07-22T02:19:49;19.10;51.10
27114;DHT22;14648;49.730;8.614;2023-07-22T02:22:15;19.10;51.10
27114;DHT22;14648;49.730;8.614;2023-07-22T02:24:40;19.10;51.20
27114;DHT22;14648;49.730;8.614;2023-07-22T02:27:06;19.00;51.00
27114;DHT22;14648;49.730;8.614;2023-07-22T02:29:34;19.10;51.10
27114;DHT22;14648;49.730;8.614;2023-07-22T02:32:00;19.10;51.10
27114;DHT22;14648;49.730;8.614;2023-07-22T02:34:26;19.10;51.10
27114;DHT22;14648;49.730;8.614;2023-07-22T02:36:52;19.10;51.10
27114;DHT22;14648;49.730;8.614;2023-07-22T02:39:17;19.10;51.10
27114;DHT22;14648;49.730;8.614;2023-07-22T02:41:43;19.10;51.00
27114;DHT22;14648;49.730;8.614;2023-07-22T02:44:09;19.10;51.10
27114;DHT22;14648;49.730;8.614;2023-07-22T02:46:35;19.20;51.00
27114;DHT22;14648;49.730;8.614;2023-07-22T02:49:00;19.20;51.10
27114;DHT22;14648;49.730;8.614;2023-07-22T02:51:26;19.20;51.00
27114;DHT22;14648;49.730;8.614;2023-07-22T02:53:52;19.10;51.00
27114;DHT22;14648;49.730;8.614;2023-07-22T02:56:17;19.10;51.00
27114;DHT22;14648;49.730;8.614;2023-07-22T02:58:43;19.10;51.00
27114;DHT22;14648;49.730;8.614;2023-07-22T03:01:09;19.10;51.00
27114;DHT22;14648;49.730;8.614;2023-07-22T03:03:36;19.10;51.00
27114;DHT22;14648;49.730;8.614;2023-07-22T03:06:02;19.10;51.00
27114;DHT22;14648;49.730;8.614;2023-07-22T03:08:29;19.10;50.90
27114;DHT22;14648;49.730;8.614;2023-07-22T03:10:55;19.10;50.80
27114;DHT22;14648;49.730;8.614;2023-07-22T03:13:21;19.00;50.70
27114;DHT22;14648;49.730;8.614;2023-07-22T03:15:47;19.00;50.80
27114;DHT22;14648;49.730;8.614;2023-07-22T03:18:12;19.00;50.90
27114;DHT22;14648;49.730;8.614;2023-07-22T03:20:39;19.00;50.90
27114;DHT22;14648;49.730;8.614;2023-07-22T03:23:06;19.00;50.90
27114;DHT22;14648;49.730;8.614;2023-07-22T03:25:32;19.00;50.90
27114;DHT22;14648;49.730;8.614;2023-07-22T03:28:04;19.00;50.90
27114;DHT22;14648;49.730;8.614;2023-07-22T03:30:31;18.90;51.00
27114;DHT22;14648;49.730;8.614;2023-07-22T03:32:56;18.90;51.10
27114;DHT22;14648;49.730;8.614;2023-07-22T03:35:23;18.90;51.10
27114;DHT22;14648;49.730;8.614;2023-07-22T03:37:48;19.00;51.20
27114;DHT22;14648;49.730;8.614;2023-07-22T03:40:14;19.00;51.30
27114;DHT22;14648;49.730;8.614;2023-07-22T03:42:51;19.00;51.30
27114;DHT22;14648;49.730;8.614;2023-07-22T03:45:19;19.00;51.30
27114;DHT22;14648;49.730;8.614;2023-07-22T03:47:47;19.00;51.30
27114;DHT22;14648;49.730;8.614;2023-07-22T03:50:16;19.00;51.40
27114;DHT22;14648;49.730;8.614;2023-07-22T03:52:42;18.90;51.50
27114;DHT22;14648;49.730;8.614;2023-07-22T03:55:08;18.80;51.50
27114;DHT22;14648;49.730;8.614;2023-07-22T03:57:34;18.90;51.70
27114;DHT22;14648;49.730;8.614;2023-07-22T04:00:00;18.90;52.60
27114;DHT22;14648;49.730;8.614;2023-07-22T04:02:26;18.90;51.90
27114;DHT22;14648;49.730;8.614;2023-07-22T04:04:54;18.90;52.00
27114;DHT22;14648;49.730;8.614;2023-07-22T04:07:20;18.90;52.10
27114;DHT22;14648;49.730;8.614;2023-07-22T04:09:47;18.80;52.10
27114;DHT22;14648;49.730;8.614;2023-07-22T04:12:13;18.80;52.30
27114;DHT22;14648;49.730;8.614;2023-07-22T04:14:39;18.70;52.30
27114;DHT22;14648;49.730;8.614;2023-07-22T04:17:05;18.80;52.40
27114;DHT22;14648;49.730;8.614;2023-07-22T04:19:32;18.70;52.60
27114;DHT22;14648;49.730;8.614;2023-07-22T04:21:57;18.60;52.60
27114;DHT22;14648;49.730;8.614;2023-07-22T04:24:23;18.60;52.70
27114;DHT22;14648;49.730;8.614;2023-07-22T04:26:50;18.60;52.80
27114;DHT22;14648;49.730;8.614;2023-07-22T04:29:16;18.60;52.90
27114;DHT22;14648;49.730;8.614;2023-07-22T04:31:42;18.60;53.00
27114;DHT22;14648;49.730;8.614;2023-07-22T04:34:08;18.60;53.10
27114;DHT22;14648;49.730;8.614;2023-07-22T04:36:34;18.60;53.20
27114;DHT22;14648;49.730;8.614;2023-07-22T04:39:02;18.70;53.20
27114;DHT22;14648;49.730;8.614;2023-07-22T04:41:30;18.70;53.20
27114;DHT22;14648;49.730;8.614;2023-07-22T04:43:57;18.70;53.10
27114;DHT22;14648;49.730;8.614;2023-07-22T04:46:24;18.70;53.20
27114;DHT22;14648;49.730;8.614;2023-07-22T04:48:53;18.70;53.20
27114;DHT22;14648;49.730;8.614;2023-07-22T04:51:19;18.80;53.40
27114;DHT22;14648;49.730;8.614;2023-07-22T04:53:45;18.80;53.40
27114;DHT22;14648;49.730;8.614;2023-07-22T04:56:11;18.80;53.30
27114;DHT22;14648;49.730;8.614;2023-07-22T04:58:36;18.80;53.40
27114;DHT22;14648;49.730;8.614;2023-07-22T05:01:02;18.80;53.60
27114;DHT22;14648;49.730;8.614;2023-07-22T05:03:28;18.90;53.80
27114;DHT22;14648;49.730;8.614;2023-07-22T05:05:53;18.90;53.90
27114;DHT22;14648;49.730;8.614;2023-07-22T05:08:19;18.90;54.00
27114;DHT22;14648;49.730;8.614;2023-07-22T05:10:46;18.90;54.10
27114;DHT22;14648;49.730;8.614;2023-07-22T05:13:11;18.90;54.20
27114;DHT22;14648;49.730;8.614;2023-07-22T05:15:37;18.90;54.30
27114;DHT22;14648;49.730;8.614;2023-07-22T05:18:03;18.80;54.40
27114;DHT22;14648;49.730;8.614;2023-07-22T05:20:28;18.90;54.50
27114;DHT22;14648;49.730;8.614;2023-07-22T05:22:55;18.80;54.40
27114;DHT22;14648;49.730;8.614;2023-07-22T05:25:21;18.90;54.50
27114;DHT22;14648;49.730;8.614;2023-07-22T05:27:46;18.90;54.50
27114;DHT22;14648;49.730;8.614;2023-07-22T05:30:12;18.90;54.50
27114;DHT22;14648;49.730;8.614;2023-07-22T05:32:38;19.00;54.60
27114;DHT22;14648;49.730;8.614;2023-07-22T05:35:03;19.00;54.70
27114;DHT22;14648;49.730;8.614;2023-07-22T05:37:31;19.00;54.80
27114;DHT22;14648;49.730;8.614;2023-07-22T05:39:56;18.90;54.90
27114;DHT22;14648;49.730;8.614;2023-07-22T05:42:22;19.00;54.90
27114;DHT22;14648;49.730;8.614;2023-07-22T05:44:48;19.00;55.00
27114;DHT22;14648;49.730;8.614;2023-07-22T05:47:14;19.10;55.10
27114;DHT22;14648;49.730;8.614;2023-07-22T05:49:48;19.10;55.10
27114;DHT22;14648;49.730;8.614;2023-07-22T05:52:13;19.10;55.20
27114;DHT22;14648;49.730;8.614;2023-07-22T05:54:39;19.20;55.20
27114;DHT22;14648;49.730;8.614;2023-07-22T05:57:05;19.20;55.30
27114;DHT22;14648;49.730;8.614;2023-07-22T05:59:31;19.20;55.40
27114;DHT22;14648;49.730;8.614;2023-07-22T06:01:57;19.30;55.40
27114;DHT22;14648;49.730;8.614;2023-07-22T06:04:22;19.30;55.40
27114;DHT22;14648;49.730;8.614;2023-07-22T06:06:48;19.30;55.50
27114;DHT22;14648;49.730;8.614;2023-07-22T06:09:14;19.40;55.40
27114;DHT22;14648;49.730;8.614;2023-07-22T06:11:40;19.40;55.30
27114;DHT22;14648;49.730;8.614;2023-07-22T06:14:05;19.40;55.40
27114;DHT22;14648;49.730;8.614;2023-07-22T06:16:32;19.40;55.30
27114;DHT22;14648;49.730;8.614;2023-07-22T06:18:58;19.40;55.40
27114;DHT22;14648;49.730;8.614;2023-07-22T06:21:23;19.40;55.30
27114;DHT22;14648;49.730;8.614;2023-07-22T06:23:49;19.50;55.30
27114;DHT22;14648;49.730;8.614;2023-07-22T06:26:15;19.50;55.10
27114;DHT22;14648;49.730;8.614;2023-07-22T06:28:40;19.50;55.10
27114;DHT22;14648;49.730;8.614;2023-07-22T06:31:06;19.50;55.20
27114;DHT22;14648;49.730;8.614;2023-07-22T06:33:32;19.50;55.00
27114;DHT22;14648;49.730;8.614;2023-07-22T06:35:58;19.50;55.10
27114;DHT22;14648;49.730;8.614;2023-07-22T06:38:24;19.60;54.90
27114;DHT22;14648;49.730;8.614;2023-07-22T06:40:52;19.60;54.90
27114;DHT22;14648;49.730;8.614;2023-07-22T06:43:19;19.60;55.00
27114;DHT22;14648;49.730;8.614;2023-07-22T06:45:44;19.60;55.00
27114;DHT22;14648;49.730;8.614;2023-07-22T06:48:10;19.70;55.10
27114;DHT22;14648;49.730;8.614;2023-07-22T06:50:36;19.70;55.10
27114;DHT22;14648;49.730;8.614;2023-07-22T06:53:01;19.70;55.10
27114;DHT22;14648;49.730;8.614;2023-07-22T06:55:27;19.70;55.20
27114;DHT22;14648;49.730;8.614;2023-07-22T06:57:55;19.80;54.90
27114;DHT22;14648;49.730;8.614;2023-07-22T07:00:21;19.80;54.90
27114;DHT22;14648;49.730;8.614;2023-07-22T07:02:47;19.80;55.00
27114;DHT22;14648;49.730;8.614;2023-07-22T07:05:13;19.80;54.90
27114;DHT22;14648;49.730;8.614;2023-07-22T07:07:38;19.90;55.00
27114;DHT22;14648;49.730;8.614;2023-07-22T07:10:05;19.90;55.00
27114;DHT22;14648;49.730;8.614;2023-07-22T07:12:31;20.00;55.00
27114;DHT22;14648;49.730;8.614;2023-07-22T07:14:57;20.00;54.80
27114;DHT22;14648;49.730;8.614;2023-07-22T07:17:23;20.00;54.90
27114;DHT22;14648;49.730;8.614;2023-07-22T07:19:48;20.00;54.90
27114;DHT22;14648;49.730;8.614;2023-07-22T07:22:14;20.10;54.90
27114;DHT22;14648;49.730;8.614;2023-07-22T07:24:40;20.10;54.90
27114;DHT22;14648;49.730;8.614;2023-07-22T07:27:06;20.10;54.90
27114;DHT22;14648;49.730;8.614;2023-07-22T07:29:31;20.20;54.80
27114;DHT22;14648;49.730;8.614;2023-07-22T07:31:57;20.20;54.80
27114;DHT22;14648;49.730;8.614;2023-07-22T07:34:22;20.30;54.90
27114;DHT22;14648;49.730;8.614;2023-07-22T07:36:48;20.30;55.00
27114;DHT22;14648;49.730;8.614;2023-07-22T07:39:14;20.30;54.80
27114;DHT22;14648;49.730;8.614;2023-07-22T07:41:40;20.30;54.80
27114;DHT22;14648;49.730;8.614;2023-07-22T07:44:05;20.40;54.80
27114;DHT22;14648;49.730;8.614;2023-07-22T07:46:31;20.40;54.60
27114;DHT22;14648;49.730;8.614;2023-07-22T07:48:59;20.40;54.70
27114;DHT22;14648;49.730;8.614;2023-07-22T07:51:30;20.50;54.90
27114;DHT22;14648;49.730;8.614;2023-07-22T07:53:58;20.50;54.90
27114;DHT22;14648;49.730;8.614;2023-07-22T07:56:24;20.60;54.90
27114;DHT22;14648;49.730;8.614;2023-07-22T07:58:52;20.60;54.70
27114;DHT22;14648;49.730;8.614;2023-07-22T08:01:18;20.70;54.50
27114;DHT22;14648;49.730;8.614;2023-07-22T08:03:44;20.80;54.50
27114;DHT22;14648;49.730;8.614;2023-07-22T08:06:11;20.80;54.30
27114;DHT22;14648;49.730;8.614;2023-07-22T08:08:37;20.90;54.40
27114;DHT22;14648;49.730;8.614;2023-07-22T08:11:11;21.00;54.30
27114;DHT22;14648;49.730;8.614;2023-07-22T08:13:39;21.20;54.30
27114;DHT22;14648;49.730;8.614;2023-07-22T08:16:06;21.30;54.00
27114;DHT22;14648;49.730;8.614;2023-07-22T08:18:34;21.30;53.70
27114;DHT22;14648;49.730;8.614;2023-07-22T08:21:04;21.30;53.80
27114;DHT22;14648;49.730;8.614;2023-07-22T08:23:33;21.30;54.10
27114;DHT22;14648;49.730;8.614;2023-07-22T08:25:59;21.40;54.70
27114;DHT22;14648;49.730;8.614;2023-07-22T08:28:24;21.50;54.00
27114;DHT22;14648;49.730;8.614;2023-07-22T08:30:54;21.50;54.60
27114;DHT22;14648;49.730;8.614;2023-07-22T08:33:24;21.60;53.70
27114;DHT22;14648;49.730;8.614;2023-07-22T08:35:53;21.60;53.60
27114;DHT22;14648;49.730;8.614;2023-07-22T08:38:19;21.60;53.50
27114;DHT22;14648;49.730;8.614;2023-07-22T08:40:49;21.60;53.30
27114;DHT22;14648;49.730;8.614;2023-07-22T08:43:20;21.80;53.60
27114;DHT22;14648;49.730;8.614;2023-07-22T08:45:48;21.90;53.60
27114;DHT22;14648;49.730;8.614;2023-07-22T08:48:17;22.10;53.20
27114;DHT22;14648;49.730;8.614;2023-07-22T08:50:53;22.20;52.80
27114;DHT22;14648;49.730;8.614;2023-07-22T08:53:20;22.30;52.60
27114;DHT22;14648;49.730;8.614;2023-07-22T08:55:46;22.40;52.20
27114;DHT22;14648;49.730;8.614;2023-07-22T08:58:16;22.50;51.80
27114;DHT22;14648;49.730;8.614;2023-07-22T09:00:42;22.50;51.40
27114;DHT22;14648;49.730;8.614;2023-07-22T09:03:09;22.60;51.30
27114;DHT22;14648;49.730;8.614;2023-07-22T09:05:36;22.70;51.90
27114;DHT22;14648;49.730;8.614;2023-07-22T09:08:03;22.70;51.00
27114;DHT22;14648;49.730;8.614;2023-07-22T09:10:30;22.70;50.80
27114;DHT22;14648;49.730;8.614;2023-07-22T09:12:56;22.80;50.80
27114;DHT22;14648;49.730;8.614;2023-07-22T09:15:22;22.90;50.50
27114;DHT22;14648;49.730;8.614;2023-07-22T09:17:49;23.00;50.30
27114;DHT22;14648;49.730;8.614;2023-07-22T09:20:15;23.10;49.90
27114;DHT22;14648;49.730;8.614;2023-07-22T09:22:46;23.30;49.90
27114;DHT22;14648;49.730;8.614;2023-07-22T09:25:23;23.40;49.30
27114;DHT22;14648;49.730;8.614;2023-07-22T09:27:54;23.50;49.10
27114;DHT22;14648;49.730;8.614;2023-07-22T09:30:22;23.50;48.80
27114;DHT22;14648;49.730;8.614;2023-07-22T09:32:53;23.50;49.00
27114;DHT22;14648;49.730;8.614;2023-07-22T09:35:20;23.50;48.90
27114;DHT22;14648;49.730;8.614;2023-07-22T09:37:46;23.50;48.50
27114;DHT22;14648;49.730;8.614;2023-07-22T09:40:20;23.50;48.40
27114;DHT22;14648;49.730;8.614;2023-07-22T09:42:55;23.50;48.00
27114;DHT22;14648;49.730;8.614;2023-07-22T09:45:23;23.50;48.20
27114;DHT22;14648;49.730;8.614;2023-07-22T09:47:52;23.60;47.70
27114;DHT22;14648;49.730;8.614;2023-07-22T09:50:20;23.70;47.60
27114;DHT22;14648;49.730;8.614;2023-07-22T09:52:51;23.80;47.30
27114;DHT22;14648;49.730;8.614;2023-07-22T09:55:22;23.90;47.10
27114;DHT22;14648;49.730;8.614;2023-07-22T09:57:58;23.90;46.30
27114;DHT22;14648;49.730;8.614;2023-07-22T10:00:37;24.00;46.20
27114;DHT22;14648;49.730;8.614;2023-07-22T10:03:09;24.10;46.20
27114;DHT22;14648;49.730;8.614;2023-07-22T10:05:38;24.10;45.60
27114;DHT22;14648;49.730;8.614;2023-07-22T10:08:06;24.20;46.20
27114;DHT22;14648;49.730;8.614;2023-07-22T10:10:34;24.20;46.10
27114;DHT22;14648;49.730;8.614;2023-07-22T10:13:01;24.20;45.10
27114;DHT22;14648;49.730;8.614;2023-07-22T10:15:32;24.20;44.40
27114;DHT22;14648;49.730;8.614;2023-07-22T10:18:00;24.00;44.00
27114;DHT22;14648;49.730;8.614;2023-07-22T10:20:27;23.90;44.10
27114;DHT22;14648;49.730;8.614;2023-07-22T10:22:54;23.80;43.80
27114;DHT22;14648;49.730;8.614;2023-07-22T10:25:21;23.70;43.60
27114;DHT22;14648;49.730;8.614;2023-07-22T10:27:49;23.60;43.40
27114;DHT22;14648;49.730;8.614;2023-07-22T10:30:17;23.60;43.40
27114;DHT22;14648;49.730;8.614;2023-07-22T10:32:47;23.50;43.30
27114;DHT22;14648;49.730;8.614;2023-07-22T10:35:41;23.50;43.40
27114;DHT22;14648;49.730;8.614;2023-07-22T10:38:13;23.50;43.40
27114;DHT22;14648;49.730;8.614;2023-07-22T10:40:53;23.60;43.30
27114;DHT22;14648;49.730;8.614;2023-07-22T10:43:39;23.50;43.20
27114;DHT22;14648;49.730;8.614;2023-07-22T10:46:12;23.50;43.20
27114;DHT22;14648;49.730;8.614;2023-07-22T10:48:40;23.50;43.50
27114;DHT22;14648;49.730;8.614;2023-07-22T10:51:15;23.40;43.50
27114;DHT22;14648;49.730;8.614;2023-07-22T10:53:46;23.40;43.10
27114;DHT22;14648;49.730;8.614;2023-07-22T10:56:19;23.30;43.30
27114;DHT22;14648;49.730;8.614;2023-07-22T11:01:32;23.30;43.40
27114;DHT22;14648;49.730;8.614;2023-07-22T11:06:58;23.30;43.20
27114;DHT22;14648;49.730;8.614;2023-07-22T11:11:57;23.30;44.00
27114;DHT22;14648;49.730;8.614;2023-07-22T11:14:48;23.30;43.60
27114;DHT22;14648;49.730;8.614;2023-07-22T11:17:16;23.30;43.60
27114;DHT22;14648;49.730;8.614;2023-07-22T11:19:43;23.30;43.60
27114;DHT22;14648;49.730;8.614;2023-07-22T11:22:09;23.20;43.50
27114;DHT22;14648;49.730;8.614;2023-07-22T11:24:36;23.30;43.60
27114;DHT22;14648;49.730;8.614;2023-07-22T11:27:07;23.30;43.60
27114;DHT22;14648;49.730;8.614;2023-07-22T11:29:36;23.40;43.30
27114;DHT22;14648;49.730;8.614;2023-07-22T11:32:02;23.50;43.40
27114;DHT22;14648;49.730;8.614;2023-07-22T11:34:29;23.60;43.10
27114;DHT22;14648;49.730;8.614;2023-07-22T11:36:56;23.60;43.20
27114;DHT22;14648;49.730;8.614;2023-07-22T11:39:24;23.60;42.80
27114;DHT22;14648;49.730;8.614;2023-07-22T11:41:51;23.60;42.80
27114;DHT22;14648;49.730;8.614;2023-07-22T11:44:20;23.60;42.70
27114;DHT22;14648;49.730;8.614;2023-07-22T11:52:02;23.50;42.90
27114;DHT22;14648;49.730;8.614;2023-07-22T11:54:34;23.60;43.20
27114;DHT22;14648;49.730;8.614;2023-07-22T11:57:11;23.80;43.10
27114;DHT22;14648;49.730;8.614;2023-07-22T11:59:44;24.00;42.80
27114;DHT22;14648;49.730;8.614;2023-07-22T12:02:24;24.10;42.60
27114;DHT22;14648;49.730;8.614;2023-07-22T12:05:03;24.40;42.40
27114;DHT22;14648;49.730;8.614;2023-07-22T12:07:35;24.50;42.40
27114;DHT22;14648;49.730;8.614;2023-07-22T12:10:06;24.70;41.90
27114;DHT22;14648;49.730;8.614;2023-07-22T12:12:33;24.90;42.80
27114;DHT22;14648;49.730;8.614;2023-07-22T12:20:15;25.40;40.70
27114;DHT22;14648;49.730;8.614;2023-07-22T12:22:41;25.50;40.50
27114;DHT22;14648;49.730;8.614;2023-07-22T12:25:08;25.70;40.30
27114;DHT22;14648;49.730;8.614;2023-07-22T12:27:34;25.90;39.30
27114;DHT22;14648;49.730;8.614;2023-07-22T12:30:00;26.00;39.10
27114;DHT22;14648;49.730;8.614;2023-07-22T12:32:25;26.10;38.80
27114;DHT22;14648;49.730;8.614;2023-07-22T12:34:51;26.00;38.60
27114;DHT22;14648;49.730;8.614;2023-07-22T12:37:17;26.10;38.50
27114;DHT22;14648;49.730;8.614;2023-07-22T12:39:42;26.10;38.20
27114;DHT22;14648;49.730;8.614;2023-07-22T12:42:08;26.10;38.60
27114;DHT22;14648;49.730;8.614;2023-07-22T12:44:34;26.10;37.90
27114;DHT22;14648;49.730;8.614;2023-07-22T12:47:00;26.20;37.90
27114;DHT22;14648;49.730;8.614;2023-07-22T12:49:25;26.20;37.40
27114;DHT22;14648;49.730;8.614;2023-07-22T12:51:51;26.30;36.90
27114;DHT22;14648;49.730;8.614;2023-07-22T12:54:17;26.30;36.50
27114;DHT22;14648;49.730;8.614;2023-07-22T12:56:43;26.20;36.40
27114;DHT22;14648;49.730;8.614;2023-07-22T12:59:09;26.20;36.40
27114;DHT22;14648;49.730;8.614;2023-07-22T13:01:35;26.10;36.70
27114;DHT22;14648;49.730;8.614;2023-07-22T13:04:04;26.10;37.00
27114;DHT22;14648;49.730;8.614;2023-07-22T13:06:30;26.20;37.20
27114;DHT22;14648;49.730;8.614;2023-07-22T13:08:56;26.20;36.80
27114;DHT22;14648;49.730;8.614;2023-07-22T13:11:22;26.40;35.70
27114;DHT22;14648;49.730;8.614;2023-07-22T13:13:49;26.40;35.30
27114;DHT22;14648;49.730;8.614;2023-07-22T13:16:15;26.40;34.70
27114;DHT22;14648;49.730;8.614;2023-07-22T13:18:41;26.40;34.60
27114;DHT22;14648;49.730;8.614;2023-07-22T13:21:07;26.40;34.60
27114;DHT22;14648;49.730;8.614;2023-07-22T13:23:33;26.40;34.30
27114;DHT22;14648;49.730;8.614;2023-07-22T13:25:58;26.40;34.60
27114;DHT22;14648;49.730;8.614;2023-07-22T13:28:24;26.50;34.00
27114;DHT22;14648;49.730;8.614;2023-07-22T13:30:50;26.60;33.90
27114;DHT22;14648;49.730;8.614;2023-07-22T13:33:16;26.70;33.50
27114;DHT22;14648;49.730;8.614;2023-07-22T13:35:42;26.70;33.10
27114;DHT22;14648;49.730;8.614;2023-07-22T13:38:08;26.60;33.10
27114;DHT22;14648;49.730;8.614;2023-07-22T13:40:33;26.60;33.30
27114;DHT22;14648;49.730;8.614;2023-07-22T13:42:59;26.60;34.20
27114;DHT22;14648;49.730;8.614;2023-07-22T13:45:26;26.60;34.40
27114;DHT22;14648;49.730;8.614;2023-07-22T13:47:52;26.70;33.50
27114;DHT22;14648;49.730;8.614;2023-07-22T13:50:19;26.80;33.10
27114;DHT22;14648;49.730;8.614;2023-07-22T13:52:45;27.00;33.40
27114;DHT22;14648;49.730;8.614;2023-07-22T13:55:11;27.10;33.40
27114;DHT22;14648;49.730;8.614;2023-07-22T13:57:36;27.30;34.00
27114;DHT22;14648;49.730;8.614;2023-07-22T14:00:03;27.40;32.90
27114;DHT22;14648;49.730;8.614;2023-07-22T14:02:34;27.50;32.40
27114;DHT22;14648;49.730;8.614;2023-07-22T14:05:00;27.50;32.60
27114;DHT22;14648;49.730;8.614;2023-07-22T14:07:25;27.50;32.40
27114;DHT22;14648;49.730;8.614;2023-07-22T14:09:51;27.50;32.30
27114;DHT22;14648;49.730;8.614;2023-07-22T14:12:18;27.40;32.20
27114;DHT22;14648;49.730;8.614;2023-07-22T14:14:45;27.40;32.30
27114;DHT22;14648;49.730;8.614;2023-07-22T14:17:11;27.30;32.60
27114;DHT22;14648;49.730;8.614;2023-07-22T14:19:37;27.30;32.20
27114;DHT22;14648;49.730;8.614;2023-07-22T14:22:03;27.20;31.90
27114;DHT22;14648;49.730;8.614;2023-07-22T14:24:29;27.00;31.90
27114;DHT22;14648;49.730;8.614;2023-07-22T14:26:55;27.00;31.90
27114;DHT22;14648;49.730;8.614;2023-07-22T14:29:22;26.90;31.40
27114;DHT22;14648;49.730;8.614;2023-07-22T14:31:47;26.70;31.60
27114;DHT22;14648;49.730;8.614;2023-07-22T14:34:13;26.70;31.50
27114;DHT22;14648;49.730;8.614;2023-07-22T14:36:39;26.60;31.50
27114;DHT22;14648;49.730;8.614;2023-07-22T14:39:04;26.60;31.60
27114;DHT22;14648;49.730;8.614;2023-07-22T14:41:30;26.60;31.70
27114;DHT22;14648;49.730;8.614;2023-07-22T14:43:56;26.50;31.80
27114;DHT22;14648;49.730;8.614;2023-07-22T14:46:22;26.50;32.00
27114;DHT22;14648;49.730;8.614;2023-07-22T14:48:48;26.60;32.20
27114;DHT22;14648;49.730;8.614;2023-07-22T14:51:14;26.70;32.00
27114;DHT22;14648;49.730;8.614;2023-07-22T14:53:39;26.90;31.70
27114;DHT22;14648;49.730;8.614;2023-07-22T14:56:05;26.90;31.50
27114;DHT22;14648;49.730;8.614;2023-07-22T14:58:36;27.00;32.20
27114;DHT22;14648;49.730;8.614;2023-07-22T15:01:01;27.10;31.80
27114;DHT22;14648;49.730;8.614;2023-07-22T15:03:27;27.30;31.60
27114;DHT22;14648;49.730;8.614;2023-07-22T15:05:53;27.40;31.40
27114;DHT22;14648;49.730;8.614;2023-07-22T15:08:19;27.60;31.00
27114;DHT22;14648;49.730;8.614;2023-07-22T15:10:44;27.60;30.60
27114;DHT22;14648;49.730;8.614;2023-07-22T15:13:10;27.70;30.50
27114;DHT22;14648;49.730;8.614;2023-07-22T15:15:36;27.70;30.50
27114;DHT22;14648;49.730;8.614;2023-07-22T15:18:01;27.80;30.30
27114;DHT22;14648;49.730;8.614;2023-07-22T15:20:27;27.70;30.30
27114;DHT22;14648;49.730;8.614;2023-07-22T15:22:53;27.70;29.90
27114;DHT22;14648;49.730;8.614;2023-07-22T15:25:18;27.80;30.10
27114;DHT22;14648;49.730;8.614;2023-07-22T15:27:44;27.80;30.00
27114;DHT22;14648;49.730;8.614;2023-07-22T15:30:10;27.70;30.10
27114;DHT22;14648;49.730;8.614;2023-07-22T15:32:36;27.80;29.80
27114;DHT22;14648;49.730;8.614;2023-07-22T15:35:02;27.80;30.00
27114;DHT22;14648;49.730;8.614;2023-07-22T15:37:28;27.80;29.80
27114;DHT22;14648;49.730;8.614;2023-07-22T15:39:53;27.80;29.80
27114;DHT22;14648;49.730;8.614;2023-07-22T15:42:19;27.80;29.90
27114;DHT22;14648;49.730;8.614;2023-07-22T15:44:45;27.90;29.60
27114;DHT22;14648;49.730;8.614;2023-07-22T15:47:10;27.90;29.40